GIA122 WARR-WADD
Flight info
| Callsign | GIA122 |
|---|---|
| Flight time | N/A |
| Altitude | 25000 |
| Route | MOVMO |
| Aircraft | A20N/M-SDE2E3FGHIRWXY/LB1 |
Departure
| Time | 2026-05-07 06:30 |
|---|---|
| Airport | Juanda International Airport (WARR) |
Arrival
| Time | N/A |
|---|---|
| Airport | Denpasar I Gusti Ngurah Rai International Airport (WADD) |
| Time | Latitude | Longitude | Altitude | Speed | Heading |
|---|---|---|---|---|---|
| 2026-05-07 06:05 | -7.38231 | 112.77546 | 20 ft | 0 kts | 184° |
| 2026-05-07 06:22 | -7.38198 | 112.77545 | 19 ft | 2 kts | 172° |
| 2026-05-07 06:22 | -7.38182 | 112.77542 | 19 ft | 2 kts | 161° |
| 2026-05-07 06:23 | -7.38167 | 112.77535 | 22 ft | 2 kts | 140° |
| 2026-05-07 06:23 | -7.38156 | 112.77522 | 21 ft | 2 kts | 115° |
| 2026-05-07 06:23 | -7.38151 | 112.77507 | 23 ft | 2 kts | 100° |
| 2026-05-07 06:23 | -7.38150 | 112.77502 | 23 ft | 0 kts | 98° |
| 2026-05-07 06:25 | -7.38150 | 112.77503 | 23 ft | 1 kts | 98° |
| 2026-05-07 06:26 | -7.38154 | 112.77530 | 19 ft | 7 kts | 98° |
| 2026-05-07 06:26 | -7.38150 | 112.77572 | 22 ft | 11 kts | 72° |
| 2026-05-07 06:26 | -7.38095 | 112.77579 | 19 ft | 9 kts | 2° |
| 2026-05-07 06:26 | -7.38042 | 112.77598 | 20 ft | 8 kts | 16° |
| 2026-05-07 06:27 | -7.37995 | 112.77569 | 20 ft | 10 kts | 294° |
| 2026-05-07 06:27 | -7.37978 | 112.77492 | 22 ft | 13 kts | 278° |
| 2026-05-07 06:27 | -7.37962 | 112.77390 | 20 ft | 16 kts | 281° |
| 2026-05-07 06:27 | -7.37912 | 112.77303 | 20 ft | 15 kts | 340° |
| 2026-05-07 06:28 | -7.37876 | 112.77300 | 22 ft | 2 kts | 4° |
| 2026-05-07 06:28 | -7.37869 | 112.77302 | 21 ft | 1 kts | 17° |
| 2026-05-07 06:28 | -7.37845 | 112.77315 | 20 ft | 8 kts | 34° |
| 2026-05-07 06:28 | -7.37790 | 112.77381 | 20 ft | 17 kts | 63° |
| 2026-05-07 06:29 | -7.37783 | 112.77449 | 20 ft | 8 kts | 96° |
| 2026-05-07 06:29 | -7.37829 | 112.77748 | 19 ft | 79 kts | 99° |
| 2026-05-07 06:29 | -7.37951 | 112.78494 | 20 ft | 134 kts | 99° |
| 2026-05-07 06:29 | -7.38125 | 112.79533 | 312 ft | 154 kts | 100° |
| 2026-05-07 06:30 | -7.38313 | 112.80608 | 901 ft | 157 kts | 98° |
| 2026-05-07 06:30 | -7.38490 | 112.81720 | 1429 ft | 163 kts | 98° |
| 2026-05-07 06:30 | -7.38665 | 112.82843 | 1983 ft | 161 kts | 99° |
| 2026-05-07 06:30 | -7.38841 | 112.83955 | 2070 ft | 167 kts | 98° |
| 2026-05-07 06:31 | -7.39035 | 112.85185 | 2252 ft | 189 kts | 99° |
| 2026-05-07 06:31 | -7.39259 | 112.86585 | 2650 ft | 214 kts | 99° |
| 2026-05-07 06:31 | -7.39508 | 112.88135 | 3194 ft | 234 kts | 99° |
| 2026-05-07 06:31 | -7.39779 | 112.89823 | 3759 ft | 254 kts | 99° |
| 2026-05-07 06:32 | -7.40067 | 112.91602 | 4600 ft | 260 kts | 99° |
| 2026-05-07 06:32 | -7.40416 | 112.93397 | 5522 ft | 263 kts | 102° |
| 2026-05-07 06:32 | -7.40814 | 112.95217 | 6399 ft | 268 kts | 102° |
| 2026-05-07 06:32 | -7.41218 | 112.97065 | 7252 ft | 273 kts | 102° |
| 2026-05-07 06:33 | -7.41620 | 112.98916 | 8060 ft | 278 kts | 102° |
| 2026-05-07 06:33 | -7.42044 | 113.00870 | 8916 ft | 282 kts | 102° |